FW6525 Weather Reports


time (UTC)temp
C
wind
direction
speed
KPH
gust
KPH
rain 1hr
cm
rain 24hr
cm
rain mn
cm
humidity
%
barometer
mb
20200606183004 21 354 3.2 8.0 0.00 0.00 0.53 60 1006.2
20200606182504 22 313 3.2 6.4 0.00 0.00 0.53 58 1006.1
20200606182004 22 298 4.8 6.4 0.00 0.00 0.53 57 1006.1
20200606181504 22 296 4.8 14.5 0.00 0.00 0.53 57 1006.2
20200606181004 22 288 8.0 17.7 0.00 0.00 0.53 56 1006.2
20200606180504 22 287 8.0 17.7 0.00 0.00 0.53 55 1006.1
20200606180004 22 284 6.4 11.3 0.00 0.00 0.53 54 1006.0
20200606175504 22 268 4.8 8.0 0.00 0.00 0.53 54 1006.3
20200606175004 22 259 4.8 14.5 0.00 0.00 0.53 54 1006.1
20200606174504 22 263 3.2 8.0 0.00 0.00 0.53 53 1006.1
20200606174004 22 256 3.2 8.0 0.00 0.00 0.53 53 1006.4
20200606173504 22 247 3.2 4.8 0.00 0.00 0.53 54 1006.1
20200606173004 23 241 3.2 6.4 0.00 0.00 0.53 53 1006.2
20200606172504 23 252 4.8 8.0 0.00 0.00 0.53 52 1006.1
20200606172004 23 240 3.2 3.2 0.00 0.00 0.53 52 1006.2
20200606171504 23 241 3.2 4.8 0.00 0.00 0.53 51 1006.1
20200606171004 23 243 3.2 8.0 0.00 0.00 0.53 51 1006.2
20200606170504 23 244 4.8 6.4 0.00 0.00 0.53 51 1006.0
20200606170004 23 240 6.4 17.7 0.00 0.00 0.53 51 1006.2
20200606165504 23 239 4.8 14.5 0.00 0.00 0.53 51 1006.2
20200606165004 23 243 6.4 8.0 0.00 0.00 0.53 51 1006.0
20200606164503 23 238 6.4 17.7 0.00 0.00 0.53 51 1005.9
20200606164003 23 238 6.4 20.9 0.00 0.00 0.53 51 1006.1
20200606163503 23 236 4.8 6.4 0.00 0.00 0.53 50 1005.9
20200606163003 23 242 6.4 14.5 0.00 0.00 0.53 49 1006.2
20200606162503 24 262 6.4 14.5 0.00 0.00 0.53 48 1005.8
20200606162004 24 247 6.4 8.0 0.00 0.00 0.53 48 1006.2
20200606161504 25 246 8.0 11.3 0.00 0.00 0.53 47 1006.2
20200606161004 25 240 6.4 14.5 0.00 0.00 0.53 47 1005.8
20200606160504 25 254 9.7 17.7 0.00 0.00 0.53 45 1005.9
20200606160003 25 239 8.0 9.7 0.00 0.00 0.53 46 1006.1
20200606155503 25 241 8.0 20.9 0.00 0.00 0.53 45 1005.8
20200606155004 25 230 6.4 17.7 0.00 0.00 0.53 47 1006.0
20200606154503 25 208 4.8 14.5 0.00 0.00 0.53 46 1006.2
20200606154004 24 210 3.2 8.0 0.00 0.00 0.53 49 1005.8
20200606153503 23 213 4.8 6.4 0.00 0.00 0.53 51 1005.9
20200606153004 23 207 3.2 11.3 0.00 0.00 0.53 51 1005.8
20200606152504 23 214 6.4 20.9 0.00 0.00 0.53 52 1005.9
20200606152003 24 204 6.4 11.3 0.00 0.00 0.53 51 1006.0
20200606151503 23 198 8.0 20.9 0.00 0.00 0.53 50 1006.2
20200606151003 23 198 9.7 27.4 0.00 0.03 0.53 50 1005.9
20200606150503 24 217 6.4 14.5 0.00 0.03 0.53 48 1006.1
20200606150004 24 241 8.0 17.7 0.00 0.03 0.53 48 1005.9
20200606145503 25 223 9.7 14.5 0.00 0.03 0.53 46 1006.2
20200606145003 24 226 14.5 29.0 0.00 0.03 0.53 47 1005.9
20200606144505 25 224 8.0 24.1 0.00 0.05 0.53 48 1006.0
20200606144003 25 225 6.4 9.7 0.00 0.05 0.53 46 1006.2
20200606143505 23 228 8.0 11.3 0.00 0.05 0.53 49 1006.0
20200606143004 23 229 11.3 24.1 0.00 0.05 0.53 51 1006.3
20200606142518 23 223 6.4 20.9 0.00 0.05 0.53 50 1006.2
20200606142006 23 209 6.4 20.9 0.00 0.05 0.53 50 1006.1
20200606141503 24 211 4.8 14.5 0.00 0.05 0.53 49 1006.2
20200606141003 23 206 6.4 17.7 0.00 0.05 0.53 49 1006.3
20200606140503 24 190 8.0 17.7 0.00 0.05 0.53 48 1006.3
20200606140003 23 190 8.0 20.9 0.00 0.05 0.53 47 1006.3
20200606135503 23 208 9.7 17.7 0.00 0.05 0.53 48 1006.2
20200606135003 25 219 8.0 17.7 0.00 0.05 0.53 46 1006.3
20200606134503 24 208 8.0 24.1 0.00 0.05 0.53 45 1006.5
20200606134003 23 210 9.7 14.5 0.00 0.05 0.53 48 1006.4
20200606133503 23 215 17.7 29.0 0.00 0.05 0.53 48 1006.4
20200606133003 25 206 11.3 24.1 0.00 0.05 0.53 45 1006.2
20200606132503 25 219 9.7 14.5 0.00 0.05 0.53 44 1006.2
20200606132003 25 213 12.9 29.0 0.00 0.05 0.53 44 1006.4
20200606131504 25 230 4.8 14.5 0.00 0.05 0.53 45 1006.2
20200606131003 23 236 6.4 20.9 0.00 0.05 0.53 50 1006.4
20200606130503 23 235 6.4 14.5 0.00 0.05 0.53 48 1006.4
20200606130004 23 237 11.3 24.1 0.00 0.05 0.53 50 1006.2
20200606125503 23 241 8.0 17.7 0.00 0.05 0.53 50 1006.3
20200606125003 23 246 9.7 24.1 0.00 0.05 0.53 49 1006.5
20200606124503 23 235 11.3 24.1 0.00 0.05 0.53 48 1006.3
20200606124003 24 241 11.3 14.5 0.00 0.05 0.53 49 1006.5
20200606123504 23 257 12.9 27.4 0.00 0.05 0.53 50 1006.7
20200606123003 23 249 16.1 19.3 0.00 0.05 0.53 48 1006.6
20200606122504 23 241 14.5 35.4 0.00 0.05 0.53 48 1006.8
20200606122003 23 253 20.9 49.9 0.00 0.05 0.53 47 1006.7
20200606121504 23 256 22.5 49.9 0.00 0.05 0.53 47 1006.5
20200606121003 23 236 19.3 25.7 0.00 0.05 0.53 47 1006.6
20200606120503 22 235 16.1 32.2 0.00 0.05 0.53 49 1006.6
20200606120003 22 255 16.1 38.6 0.00 0.05 0.53 51 1006.8
20200606115503 22 254 19.3 45.1 0.00 0.05 0.53 49 1006.5
20200606115003 23 248 16.1 29.0 0.00 0.05 0.53 49 1006.5
20200606114503 23 251 16.1 24.1 0.00 0.05 0.53 50 1006.5
20200606114003 23 239 16.1 35.4 0.00 0.05 0.53 48 1006.6
20200606113508 22 251 20.9 48.3 0.00 0.05 0.53 50 1006.5
20200606113003 23 234 14.5 32.2 0.00 0.05 0.53 52 1006.6
20200606112504 23 244 17.7 27.4 0.00 0.05 0.53 50 1006.5
20200606112003 23 239 16.1 35.4 0.00 0.05 0.53 50 1006.7
20200606111503 23 241 12.9 35.4 0.00 0.05 0.53 51 1006.5
20200606111003 22 248 16.1 41.8 0.00 0.05 0.53 50 1006.4
20200606110503 22 240 19.3 38.6 0.00 0.05 0.53 51 1006.7
20200606110003 22 226 17.7 30.6 0.00 0.05 0.53 52 1006.6
20200606105503 22 238 24.1 48.3 0.00 0.05 0.53 52 1006.6
20200606105003 22 228 19.3 41.8 0.00 0.05 0.53 52 1006.8
20200606104503 22 237 19.3 41.8 0.00 0.05 0.53 51 1006.6
20200606104003 22 221 14.5 32.2 0.00 0.05 0.53 51 1006.4
20200606103503 22 211 16.1 25.7 0.00 0.05 0.53 54 1006.5
20200606103003 22 230 19.3 41.8 0.00 0.05 0.53 51 1006.5
20200606102503 21 208 16.1 25.7 0.00 0.05 0.53 52 1006.7
20200606102011 23 231 11.3 35.4 0.00 0.05 0.53 49 1006.6
20200606101504 22 227 17.7 41.8 0.00 0.05 0.53 52 1006.6
20200606101003 22 236 17.7 27.4 0.00 0.05 0.53 50 1006.5
20200606100508 21 224 19.3 45.1 0.00 0.05 0.53 50 1006.6
20200606100012 21 225 19.3 49.9 0.00 0.05 0.53 51 1006.5
20200606095503 22 204 16.1 27.4 0.00 0.05 0.53 52 1006.5
20200606095003 21 203 14.5 32.2 0.00 0.05 0.53 54 1006.7
20200606094504 22 200 14.5 32.2 0.00 0.08 0.53 54 1006.6
20200606094003 21 215 12.9 35.4 0.00 0.13 0.53 53 1006.5
20200606093503 21 211 14.5 35.4 0.00 0.25 0.53 54 1006.4
20200606093003 21 209 16.1 41.8 0.00 0.36 0.53 53 1006.5
20200606092503 21 215 12.9 35.4 0.00 0.41 0.53 55 1006.5
20200606092003 21 225 9.7 19.3 0.00 0.43 0.53 55 1006.6
20200606091003 20 214 16.1 24.1 0.00 0.48 0.53 59 1006.3
20200606090503 20 222 19.3 45.1 0.00 0.48 0.53 57 1006.5
20200606090003 21 224 16.1 53.1 0.00 0.48 0.53 54 1006.3
20200606085503 21 196 14.5 32.2 0.00 0.48 0.53 55 1006.3
20200606085003 20 212 12.9 32.2 0.00 0.48 0.53 56 1006.1
20200606084503 20 219 14.5 20.9 0.00 0.48 0.53 56 1006.1
20200606084003 20 209 16.1 38.6 0.00 0.48 0.53 56 1006.2
20200606083503 19 228 12.9 29.0 0.00 0.48 0.53 59 1006.4
20200606083003 18 219 12.9 32.2 0.00 0.48 0.53 61 1006.3
20200606082503 19 212 12.9 32.2 0.00 0.48 0.53 61 1006.2
20200606082003 18 228 14.5 32.2 0.00 0.48 0.53 61 1006.3
20200606081503 19 207 14.5 32.2 0.00 0.48 0.53 61 1006.2
20200606081003 18 224 17.7 24.1 0.00 0.48 0.53 61 1006.1
20200606080503 20 217 11.3 27.4 0.00 0.48 0.53 57 1006.3
20200606080004 20 223 14.5 67.6 0.00 0.48 0.53 58 1006.4
20200606075503 20 223 12.9 32.2 0.00 0.48 0.53 58 1006.3
20200606075003 19 227 14.5 35.4 0.00 0.48 0.53 58 1006.2
20200606074503 20 230 14.5 38.6 0.00 0.51 0.53 57 1006.3
20200606074003 19 222 16.1 41.8 0.00 0.51 0.53 57 1005.9
20200606073503 19 215 14.5 32.2 0.00 0.53 0.53 56 1005.9
20200606073003 18 218 14.5 19.3 0.00 0.53 0.53 59 1005.9
20200606072503 18 228 12.9 32.2 0.00 0.53 0.53 59 1006.1
20200606072003 18 225 16.1 38.6 0.00 0.53 0.53 59 1006.2
20200606071503 18 226 17.7 22.5 0.00 0.53 0.53 60 1006.0
20200606071003 18 222 17.7 45.1 0.00 0.53 0.53 59 1005.9
20200606070503 18 225 16.1 32.2 0.00 0.53 0.53 61 1005.8
20200606070003 18 220 16.1 35.4 0.00 0.53 0.53 61 1005.9
20200606065503 18 225 11.3 19.3 0.00 0.53 0.53 60 1006.0
20200606065003 18 211 12.9 35.4 0.00 0.53 0.53 62 1005.9
20200606064503 18 212 14.5 38.6 0.00 0.53 0.53 62 1005.9
20200606064003 18 204 9.7 24.1 0.00 0.53 0.53 61 1005.6
20200606063503 17 222 19.3 48.3 0.00 0.53 0.53 64 1005.8
20200606063003 17 225 14.5 35.4 0.00 0.53 0.53 63 1005.8
20200606062503 17 211 11.3 32.2 0.00 0.53 0.53 64 1005.9
20200606062003 17 217 14.5 19.3 0.00 0.53 0.53 64 1005.8
20200606061503 17 214 14.5 35.4 0.00 0.53 0.53 65 1005.9
20200606061003 17 219 12.9 29.0 0.00 0.53 0.53 65 1006.0
20200606060503 17 220 11.3 29.0 0.00 0.53 0.53 66 1006.1
20200606060003 17 203 9.7 24.1 0.00 0.53 0.53 66 1005.8
20200606055503 17 201 9.7 16.1 0.00 0.53 0.53 66 1005.6
20200606055003 17 213 9.7 24.1 0.00 0.53 0.53 66 1005.4
20200606054503 16 207 11.3 20.9 0.00 0.53 0.53 68 1005.4
20200606054003 16 210 11.3 27.4 0.00 0.53 0.53 69 1005.3
20200606053503 16 209 11.3 24.1 0.00 0.53 0.53 70 1005.1
20200606053003 16 219 11.3 19.3 0.00 0.53 0.53 70 1005.1
20200606052503 16 222 9.7 29.0 0.00 0.53 0.53 71 1005.3
20200606052003 15 227 11.3 24.1 0.00 0.53 0.53 72 1005.4
20200606051503 15 227 11.3 29.0 0.00 0.53 0.53 74 1005.5
20200606051003 15 225 12.9 29.0 0.00 0.53 0.53 73 1005.6
20200606050503 15 230 11.3 27.4 0.00 0.53 0.53 76 1005.3
20200606050003 14 233 12.9 17.7 0.00 0.53 0.53 76 1005.5
20200606045504 14 240 20.9 35.4 0.00 0.53 0.53 76 1005.2